createdAt,value
2022-08-31T00:00:30.511Z,21.41
2022-08-31T00:03:15.837Z,21.38
2022-08-31T00:05:43.148Z,21.38
2022-08-31T00:08:09.800Z,21.35
2022-08-31T00:10:40.878Z,21.36
2022-08-31T00:13:10.000Z,21.36
2022-08-31T00:15:36.922Z,21.34
2022-08-31T00:18:04.653Z,21.29
2022-08-31T00:20:33.588Z,21.30
2022-08-31T00:23:07.571Z,21.28
2022-08-31T00:25:35.190Z,21.25
2022-08-31T00:28:02.706Z,21.23
2022-08-31T00:30:30.678Z,21.18
2022-08-31T00:32:58.534Z,21.18
2022-08-31T00:35:30.564Z,21.18
2022-08-31T00:37:57.459Z,21.24
2022-08-31T00:40:25.340Z,21.25
2022-08-31T00:42:52.605Z,21.24
2022-08-31T00:45:19.492Z,21.26
2022-08-31T00:47:46.249Z,21.25
2022-08-31T00:50:15.250Z,21.28
2022-08-31T00:52:45.696Z,21.23
2022-08-31T00:55:26.677Z,21.19
2022-08-31T00:57:56.322Z,21.18
2022-08-31T01:00:25.750Z,21.14
2022-08-31T01:02:53.194Z,21.10
2022-08-31T01:05:21.243Z,21.01
2022-08-31T01:07:48.626Z,20.89
2022-08-31T01:10:17.376Z,20.71
2022-08-31T01:12:45.620Z,20.57
2022-08-31T01:15:13.028Z,20.54
2022-08-31T01:17:41.277Z,20.51
2022-08-31T01:20:32.275Z,20.52
2022-08-31T01:23:05.902Z,20.58
2022-08-31T01:25:35.179Z,20.66
2022-08-31T01:28:05.037Z,20.69
2022-08-31T01:30:32.522Z,20.74
2022-08-31T01:32:59.563Z,20.87
2022-08-31T01:35:26.788Z,20.90
2022-08-31T01:37:54.106Z,20.90
2022-08-31T01:40:21.096Z,20.93
2022-08-31T01:42:47.959Z,20.77
2022-08-31T01:45:15.410Z,20.45
2022-08-31T01:47:42.316Z,20.28
2022-08-31T01:50:09.911Z,20.35
2022-08-31T01:52:37.987Z,20.45
2022-08-31T01:55:07.242Z,20.54
2022-08-31T01:57:34.777Z,20.62
2022-08-31T02:00:37.166Z,20.64
2022-08-31T02:03:07.794Z,20.58
2022-08-31T02:05:36.610Z,20.52
2022-08-31T02:08:05.717Z,20.49
2022-08-31T02:10:32.754Z,20.52
2022-08-31T02:13:00.229Z,20.54
2022-08-31T02:15:29.931Z,20.51
2022-08-31T02:17:56.801Z,20.42
2022-08-31T02:20:23.968Z,20.42
2022-08-31T02:22:51.144Z,20.46
2022-08-31T02:25:18.196Z,20.45
2022-08-31T02:27:45.861Z,20.39
2022-08-31T02:30:19.166Z,20.35
2022-08-31T02:32:45.905Z,20.27
2022-08-31T02:35:13.107Z,20.25
2022-08-31T02:37:39.856Z,20.24
2022-08-31T02:40:12.090Z,20.19
2022-08-31T02:42:53.540Z,20.12
2022-08-31T02:45:24.676Z,20.03
2022-08-31T02:47:54.241Z,20.02
2022-08-31T02:50:28.129Z,20.01
2022-08-31T02:52:56.758Z,20.00
2022-08-31T02:55:25.154Z,19.97
2022-08-31T02:57:52.300Z,19.92
2022-08-31T03:00:21.594Z,19.91
2022-08-31T03:02:48.724Z,19.84
2022-08-31T03:05:15.670Z,19.68
2022-08-31T03:07:42.626Z,19.63
2022-08-31T03:10:13.529Z,19.65
2022-08-31T03:12:40.498Z,19.62
2022-08-31T03:15:11.106Z,19.58
2022-08-31T03:17:38.291Z,19.53
2022-08-31T03:20:07.737Z,19.57
2022-08-31T03:22:34.660Z,19.60
2022-08-31T03:25:05.490Z,19.57
2022-08-31T03:27:32.325Z,19.52
2022-08-31T03:30:00.447Z,19.46
2022-08-31T03:32:31.343Z,19.43
2022-08-31T03:34:59.930Z,19.38
2022-08-31T03:37:27.340Z,19.32
2022-08-31T03:39:58.026Z,19.29
2022-08-31T03:42:25.575Z,19.26
2022-08-31T03:44:54.285Z,19.21
2022-08-31T03:47:28.373Z,19.20
2022-08-31T03:49:59.373Z,19.18
2022-08-31T03:52:56.541Z,19.09
2022-08-31T03:55:25.329Z,19.05
2022-08-31T03:57:52.989Z,19.02
2022-08-31T04:00:19.867Z,18.99
2022-08-31T04:02:57.331Z,18.97
2022-08-31T04:05:31.768Z,18.91
2022-08-31T04:08:07.419Z,18.82
2022-08-31T04:10:53.780Z,18.78
2022-08-31T04:13:40.177Z,18.81
2022-08-31T04:16:36.877Z,18.81
2022-08-31T04:19:22.319Z,18.81
2022-08-31T04:22:00.823Z,18.80
2022-08-31T04:24:29.458Z,18.79
2022-08-31T04:26:56.182Z,18.76
2022-08-31T04:29:23.712Z,18.78
2022-08-31T04:31:50.433Z,18.79
2022-08-31T04:34:17.200Z,18.77
2022-08-31T04:36:46.897Z,18.77
2022-08-31T04:39:14.844Z,18.77
2022-08-31T04:41:43.900Z,18.80
2022-08-31T04:44:16.439Z,18.85
2022-08-31T04:49:49.064Z,18.69
2022-08-31T04:52:16.472Z,18.62
2022-08-31T04:54:43.465Z,18.61
2022-08-31T04:57:10.816Z,18.65
2022-08-31T04:59:37.671Z,18.69
2022-08-31T05:02:24.851Z,18.70
2022-08-31T05:05:01.151Z,18.75
2022-08-31T05:07:28.496Z,18.75
2022-08-31T05:09:58.165Z,18.71
2022-08-31T05:12:24.983Z,18.63
2022-08-31T05:14:52.688Z,18.66
2022-08-31T05:17:23.921Z,18.70
2022-08-31T05:19:52.339Z,18.76
2022-08-31T05:22:19.233Z,18.82
2022-08-31T05:24:51.641Z,18.90
2022-08-31T05:33:38.883Z,19.18
2022-08-31T05:36:06.491Z,19.24
2022-08-31T05:38:34.842Z,19.29
2022-08-31T05:41:04.422Z,19.34
2022-08-31T05:43:31.104Z,19.41
2022-08-31T05:45:57.953Z,19.42
2022-08-31T05:48:30.114Z,19.47
2022-08-31T05:51:01.209Z,19.55
2022-08-31T05:53:28.186Z,19.67
2022-08-31T05:56:10.621Z,19.81
2022-08-31T05:58:38.974Z,19.97
2022-08-31T06:01:15.986Z,20.10
2022-08-31T06:04:03.361Z,20.23
2022-08-31T06:06:30.309Z,20.32
2022-08-31T06:08:57.878Z,20.41
2022-08-31T06:11:28.247Z,20.55
2022-08-31T06:13:58.242Z,20.72
2022-08-31T06:16:26.394Z,20.87
2022-08-31T06:18:55.630Z,20.91
2022-08-31T06:21:26.293Z,20.94
2022-08-31T06:23:57.183Z,20.90
2022-08-31T06:26:26.840Z,20.96
2022-08-31T06:28:56.861Z,21.09
2022-08-31T06:31:31.442Z,21.22
2022-08-31T06:33:59.284Z,21.34
2022-08-31T06:36:49.758Z,21.52
2022-08-31T06:39:37.179Z,21.58
2022-08-31T06:42:22.537Z,21.25
2022-08-31T06:44:59.306Z,21.00
2022-08-31T06:47:38.162Z,20.92
2022-08-31T06:50:06.254Z,21.10
2022-08-31T06:52:38.248Z,21.38
2022-08-31T06:55:16.610Z,21.60
2022-08-31T06:57:52.595Z,21.73
2022-08-31T07:00:37.990Z,21.87
2022-08-31T07:03:34.452Z,21.98
2022-08-31T07:06:22.866Z,22.06
2022-08-31T07:08:52.296Z,22.07
2022-08-31T07:11:26.113Z,22.11
2022-08-31T07:13:55.090Z,22.30
2022-08-31T07:16:24.249Z,22.45
2022-08-31T07:18:52.459Z,22.60
2022-08-31T07:21:25.751Z,22.77
2022-08-31T07:23:54.061Z,22.80
2022-08-31T07:26:27.807Z,22.78
2022-08-31T07:28:56.646Z,22.78
2022-08-31T07:31:30.352Z,22.73
2022-08-31T07:33:57.312Z,22.69
2022-08-31T07:36:26.301Z,22.67
2022-08-31T07:39:24.581Z,22.68
2022-08-31T07:42:09.297Z,22.67
2022-08-31T07:44:36.385Z,22.69
2022-08-31T07:47:04.259Z,22.73
2022-08-31T07:49:31.188Z,22.78
2022-08-31T07:52:28.786Z,22.84
2022-08-31T07:55:23.720Z,22.89
2022-08-31T07:57:58.952Z,22.87
2022-08-31T08:00:28.477Z,22.84
2022-08-31T08:02:55.622Z,22.91
2022-08-31T08:05:29.238Z,22.99
2022-08-31T08:08:29.958Z,23.10
2022-08-31T08:11:18.302Z,23.13
2022-08-31T08:13:54.333Z,23.18
2022-08-31T08:16:29.331Z,23.24
2022-08-31T08:19:06.270Z,23.32
2022-08-31T08:21:33.056Z,23.34
2022-08-31T08:24:00.584Z,23.29
2022-08-31T08:26:45.571Z,23.30
2022-08-31T08:29:25.187Z,23.26
2022-08-31T08:31:56.192Z,23.39
2022-08-31T08:34:32.475Z,23.51
2022-08-31T08:37:01.904Z,23.62
2022-08-31T08:39:29.878Z,23.67
2022-08-31T08:42:11.056Z,23.74
2022-08-31T08:44:38.433Z,23.82
2022-08-31T08:47:08.075Z,23.90
2022-08-31T08:49:54.230Z,23.97
2022-08-31T08:52:41.631Z,24.03
2022-08-31T08:55:16.371Z,24.09
2022-08-31T08:57:46.061Z,24.14
2022-08-31T09:00:20.601Z,24.07
2022-08-31T09:03:01.121Z,24.02
2022-08-31T09:06:09.971Z,24.12
2022-08-31T09:08:59.622Z,24.19
2022-08-31T09:11:42.112Z,24.24
2022-08-31T09:14:28.554Z,24.28
2022-08-31T09:17:07.919Z,24.08
2022-08-31T09:19:54.685Z,23.95
2022-08-31T09:22:21.622Z,23.95
2022-08-31T09:24:53.067Z,23.94
2022-08-31T09:27:46.887Z,24.06
2022-08-31T09:30:32.967Z,24.09
2022-08-31T09:33:00.407Z,24.22
2022-08-31T09:35:40.403Z,24.40
2022-08-31T09:38:12.528Z,24.52
2022-08-31T09:40:47.937Z,24.64
2022-08-31T09:43:25.608Z,24.66
2022-08-31T09:46:21.354Z,24.74
2022-08-31T09:48:58.751Z,24.90
2022-08-31T09:51:34.942Z,25.05
2022-08-31T09:54:37.293Z,25.16
2022-08-31T09:57:09.130Z,25.17
2022-08-31T09:59:44.162Z,25.07
2022-08-31T10:02:23.231Z,25.07
2022-08-31T10:04:54.740Z,25.07
2022-08-31T10:07:28.919Z,25.08
2022-08-31T10:10:06.208Z,25.12
2022-08-31T10:12:49.672Z,25.18
2022-08-31T10:15:43.785Z,25.19
2022-08-31T10:18:38.360Z,25.13
2022-08-31T10:21:16.425Z,25.04
2022-08-31T10:23:54.444Z,25.10
2022-08-31T10:26:36.649Z,25.18
2022-08-31T10:29:08.378Z,25.23
2022-08-31T10:31:48.558Z,25.26
2022-08-31T10:34:43.930Z,25.34
2022-08-31T10:37:25.275Z,25.39
2022-08-31T10:39:55.128Z,25.45
2022-08-31T10:42:26.943Z,25.46
2022-08-31T10:44:57.270Z,25.53
2022-08-31T10:47:33.255Z,25.64
2022-08-31T10:50:03.716Z,25.52
2022-08-31T10:52:34.301Z,25.64
2022-08-31T10:55:06.732Z,25.74
2022-08-31T10:57:44.521Z,25.90
2022-08-31T11:00:40.044Z,26.03
2022-08-31T11:03:13.265Z,25.86
2022-08-31T11:05:51.170Z,25.88
2022-08-31T11:08:59.752Z,26.07
2022-08-31T11:11:50.166Z,26.36
2022-08-31T11:14:36.655Z,26.70
2022-08-31T11:17:34.559Z,26.86
2022-08-31T11:20:39.928Z,27.09
2022-08-31T11:23:15.829Z,27.19
2022-08-31T11:26:16.973Z,27.19
2022-08-31T11:28:49.575Z,27.14
2022-08-31T11:31:24.249Z,27.19
2022-08-31T11:34:15.958Z,27.29
2022-08-31T11:36:50.475Z,27.12
2022-08-31T11:39:36.248Z,27.13
2022-08-31T11:42:19.237Z,27.24
2022-08-31T11:44:59.353Z,27.46
2022-08-31T11:47:29.954Z,27.48
2022-08-31T11:50:33.233Z,27.51
2022-08-31T11:53:02.002Z,27.46
2022-08-31T11:55:30.529Z,27.52
2022-08-31T11:58:06.226Z,27.58
2022-08-31T12:00:44.017Z,27.63
2022-08-31T12:03:37.146Z,27.76
2022-08-31T12:06:05.813Z,27.89
2022-08-31T12:08:35.068Z,27.97
2022-08-31T12:11:41.872Z,28.07
2022-08-31T12:14:14.321Z,28.15
2022-08-31T12:16:44.890Z,28.20
2022-08-31T12:20:01.669Z,28.07
2022-08-31T12:23:06.062Z,27.89
2022-08-31T12:25:59.928Z,27.82
2022-08-31T12:28:55.090Z,27.84
2022-08-31T12:31:21.873Z,27.88
2022-08-31T12:34:03.761Z,28.10
2022-08-31T12:36:35.219Z,28.12
2022-08-31T12:39:07.363Z,28.02
2022-08-31T12:41:34.200Z,27.98
2022-08-31T12:44:03.855Z,27.91
2022-08-31T12:46:33.895Z,27.85
2022-08-31T12:49:09.495Z,27.72
2022-08-31T12:51:36.255Z,27.76
2022-08-31T12:54:06.009Z,27.78
2022-08-31T12:57:02.110Z,27.82
2022-08-31T12:59:57.444Z,27.85
2022-08-31T13:02:25.052Z,27.90
2022-08-31T13:04:52.038Z,27.92
2022-08-31T13:07:21.613Z,27.90
2022-08-31T13:10:04.181Z,27.86
2022-08-31T13:12:31.097Z,27.88
2022-08-31T13:14:57.916Z,27.93
2022-08-31T13:17:24.769Z,27.96
2022-08-31T13:19:55.469Z,27.97
2022-08-31T13:22:44.721Z,27.99
2022-08-31T13:25:42.782Z,28.05
2022-08-31T13:28:15.507Z,28.04
2022-08-31T13:30:56.374Z,28.10
2022-08-31T13:33:27.110Z,28.14
2022-08-31T13:36:32.557Z,28.29
2022-08-31T13:39:25.561Z,28.42
2022-08-31T13:42:08.891Z,28.65
2022-08-31T13:44:39.907Z,28.79
2022-08-31T13:47:31.945Z,28.88
2022-08-31T13:50:13.706Z,28.92
2022-08-31T13:53:04.136Z,29.09
2022-08-31T13:55:43.726Z,29.38
2022-08-31T13:58:26.830Z,29.47
2022-08-31T14:01:19.470Z,29.50
2022-08-31T14:03:52.083Z,29.60
2022-08-31T14:06:35.084Z,29.93
2022-08-31T14:09:16.640Z,29.92
2022-08-31T14:11:53.969Z,29.95
2022-08-31T14:14:29.969Z,29.84
2022-08-31T14:16:58.286Z,29.33
2022-08-31T14:19:33.050Z,28.80
2022-08-31T14:22:25.549Z,28.63
2022-08-31T14:24:52.288Z,28.65
2022-08-31T14:27:18.934Z,28.63
2022-08-31T14:29:46.162Z,28.65
2022-08-31T14:32:13.207Z,28.63
2022-08-31T14:34:47.157Z,28.67
2022-08-31T14:37:19.803Z,28.71
2022-08-31T14:39:50.625Z,28.75
2022-08-31T14:42:31.003Z,28.84
2022-08-31T14:45:05.498Z,28.87
2022-08-31T14:47:44.076Z,28.85
2022-08-31T14:50:14.024Z,28.77
2022-08-31T14:52:46.467Z,28.74
2022-08-31T14:55:14.269Z,28.48
2022-08-31T14:57:45.682Z,28.18
2022-08-31T15:00:15.076Z,28.37
2022-08-31T15:02:42.065Z,28.55
2022-08-31T15:05:09.773Z,28.67
2022-08-31T15:07:39.376Z,28.74
2022-08-31T15:10:08.793Z,28.81
2022-08-31T15:12:35.834Z,28.95
2022-08-31T15:15:02.994Z,29.01
2022-08-31T15:17:33.681Z,28.99
2022-08-31T15:20:03.235Z,28.97
2022-08-31T15:22:31.401Z,29.01
2022-08-31T15:24:58.363Z,29.07
2022-08-31T15:27:28.871Z,29.21
2022-08-31T15:30:02.498Z,29.47
2022-08-31T15:32:29.312Z,30.11
2022-08-31T15:34:58.854Z,33.57
2022-08-31T15:37:31.905Z,39.11
2022-08-31T15:40:00.951Z,44.00
2022-08-31T15:42:29.373Z,48.14
2022-08-31T15:44:56.880Z,50.97
2022-08-31T15:47:48.219Z,53.57
2022-08-31T15:50:19.217Z,55.61
2022-08-31T15:52:50.973Z,56.88
2022-08-31T15:55:26.437Z,57.84
2022-08-31T15:57:55.125Z,58.66
2022-08-31T16:00:27.015Z,59.34
2022-08-31T16:02:57.458Z,59.81
2022-08-31T16:05:28.471Z,59.60
2022-08-31T16:07:55.670Z,59.60
2022-08-31T16:10:23.388Z,59.47
2022-08-31T16:12:52.156Z,59.18
2022-08-31T16:15:21.286Z,59.00
2022-08-31T16:17:51.413Z,59.17
2022-08-31T16:20:18.123Z,59.08
2022-08-31T16:22:45.554Z,58.78
2022-08-31T16:25:14.315Z,58.64
2022-08-31T16:27:43.481Z,58.31
2022-08-31T16:30:12.220Z,57.95
2022-08-31T16:32:39.459Z,57.45
2022-08-31T16:35:06.954Z,56.74
2022-08-31T16:37:33.853Z,55.65
2022-08-31T16:40:00.710Z,54.20
2022-08-31T16:42:28.046Z,52.46
2022-08-31T16:44:59.763Z,51.96
2022-08-31T16:47:29.092Z,52.29
2022-08-31T16:49:55.919Z,50.16
2022-08-31T16:52:26.551Z,45.08
2022-08-31T16:54:54.130Z,41.30
2022-08-31T16:57:26.995Z,38.49
2022-08-31T16:59:55.728Z,36.50
2022-08-31T17:02:23.775Z,35.04
2022-08-31T17:04:53.076Z,33.95
2022-08-31T17:07:23.651Z,33.06
2022-08-31T17:09:51.149Z,32.33
2022-08-31T17:12:21.790Z,31.66
2022-08-31T17:14:52.817Z,31.05
2022-08-31T17:17:24.939Z,30.47
2022-08-31T17:19:53.211Z,29.89
2022-08-31T17:22:29.904Z,29.46
2022-08-31T17:25:01.223Z,29.06
2022-08-31T17:27:27.975Z,28.72
2022-08-31T17:30:00.841Z,28.39
2022-08-31T17:32:28.391Z,27.92
2022-08-31T17:34:55.739Z,27.60
2022-08-31T17:37:31.514Z,27.34
2022-08-31T17:40:00.854Z,27.04
2022-08-31T17:42:28.695Z,26.73
2022-08-31T17:44:56.992Z,26.50
2022-08-31T17:47:25.291Z,26.32
2022-08-31T17:49:53.655Z,26.15
2022-08-31T17:52:21.648Z,25.98
2022-08-31T17:54:50.933Z,25.78
2022-08-31T17:57:22.316Z,25.63
2022-08-31T17:59:49.294Z,25.52
2022-08-31T18:02:21.589Z,25.41
2022-08-31T18:04:49.160Z,25.29
2022-08-31T18:07:16.414Z,25.09
2022-08-31T18:09:45.559Z,24.91
2022-08-31T18:12:14.479Z,24.80
2022-08-31T18:14:41.715Z,24.69
2022-08-31T18:17:11.728Z,24.53
2022-08-31T18:19:38.879Z,24.41
2022-08-31T18:22:06.792Z,24.33
2022-08-31T18:24:35.700Z,24.22
2022-08-31T18:27:07.187Z,24.07
2022-08-31T18:29:36.418Z,23.99
2022-08-31T18:32:05.240Z,23.92
2022-08-31T18:34:35.154Z,23.83
2022-08-31T18:37:02.248Z,23.73
2022-08-31T18:39:51.020Z,23.62
2022-08-31T18:42:38.061Z,23.46
2022-08-31T18:45:19.366Z,23.32
2022-08-31T18:48:23.822Z,23.15
2022-08-31T18:50:44.649Z,23.04
2022-08-31T18:53:15.081Z,22.97
2022-08-31T18:55:43.638Z,22.85
2022-08-31T18:58:10.614Z,22.67
2022-08-31T19:00:37.705Z,22.54
2022-08-31T19:03:04.926Z,22.52
2022-08-31T19:05:32.729Z,22.50
2022-08-31T19:08:00.305Z,22.43
2022-08-31T19:10:27.390Z,22.32
2022-08-31T19:12:57.153Z,22.25
2022-08-31T19:15:31.486Z,22.22
2022-08-31T19:18:03.413Z,22.17
2022-08-31T19:20:30.391Z,21.96
2022-08-31T19:22:57.209Z,21.87
2022-08-31T19:25:24.563Z,21.84
2022-08-31T19:27:52.119Z,21.80
2022-08-31T19:30:24.413Z,21.69
2022-08-31T19:32:53.601Z,21.63
2022-08-31T19:35:20.342Z,21.60
2022-08-31T19:37:49.719Z,21.55
2022-08-31T19:40:18.213Z,21.45
2022-08-31T19:43:41.814Z,21.36
2022-08-31T19:45:42.880Z,21.25
2022-08-31T19:48:11.938Z,21.11
2022-08-31T19:50:42.576Z,20.92
2022-08-31T19:53:12.552Z,20.90
2022-08-31T19:55:50.770Z,20.96
2022-08-31T19:58:26.204Z,20.97
2022-08-31T20:01:01.411Z,20.97
2022-08-31T20:03:31.828Z,20.92
2022-08-31T20:05:59.934Z,20.82
2022-08-31T20:08:26.764Z,20.80
2022-08-31T20:10:53.561Z,20.77
2022-08-31T20:13:22.956Z,20.70
2022-08-31T20:15:50.970Z,20.60
2022-08-31T20:18:17.889Z,20.58
2022-08-31T20:20:48.240Z,20.57
2022-08-31T20:23:17.281Z,20.56
2022-08-31T20:25:46.354Z,20.53
2022-08-31T20:28:13.470Z,20.46
2022-08-31T20:30:41.509Z,20.39
2022-08-31T20:33:09.667Z,20.37
2022-08-31T20:35:41.452Z,20.33
2022-08-31T20:38:11.946Z,20.32
2022-08-31T20:40:40.184Z,20.28
2022-08-31T20:43:11.556Z,20.16
2022-08-31T20:45:39.168Z,20.19
2022-08-31T20:48:24.670Z,20.20
2022-08-31T20:50:51.601Z,20.20
2022-08-31T20:53:38.951Z,20.13
2022-08-31T20:56:09.078Z,20.18
2022-08-31T20:58:35.837Z,20.17
2022-08-31T21:01:06.995Z,20.24
2022-08-31T21:03:34.687Z,20.20
2022-08-31T21:06:08.334Z,20.18
2022-08-31T21:08:38.349Z,20.12
2022-08-31T21:11:16.625Z,19.99
2022-08-31T21:13:44.747Z,19.87
2022-08-31T21:16:11.938Z,19.84
2022-08-31T21:18:40.504Z,19.87
2022-08-31T21:21:10.290Z,19.75
2022-08-31T21:23:38.584Z,19.75
2022-08-31T21:26:08.678Z,19.83
2022-08-31T21:28:38.573Z,19.86
2022-08-31T21:31:16.569Z,19.89
2022-08-31T21:34:00.453Z,19.82
2022-08-31T21:36:28.179Z,19.73
2022-08-31T21:38:57.120Z,19.71
2022-08-31T21:41:26.718Z,19.79
2022-08-31T21:43:55.045Z,19.82
2022-08-31T21:46:25.198Z,19.78
2022-08-31T21:48:53.077Z,19.68
2022-08-31T21:51:21.095Z,19.65
2022-08-31T21:53:51.709Z,19.68
2022-08-31T21:56:20.027Z,19.70
2022-08-31T21:58:47.717Z,19.70
2022-08-31T22:01:18.504Z,19.67
2022-08-31T22:03:47.324Z,19.63
2022-08-31T22:06:27.017Z,19.63
2022-08-31T22:08:57.555Z,19.56
2022-08-31T22:11:24.424Z,19.68
2022-08-31T22:13:53.138Z,19.60
2022-08-31T22:16:20.307Z,19.43
2022-08-31T22:19:06.738Z,19.43
2022-08-31T22:21:34.954Z,19.34
2022-08-31T22:24:05.619Z,19.31
2022-08-31T22:26:35.471Z,19.28
2022-08-31T22:29:02.502Z,19.30
2022-08-31T22:31:29.471Z,19.32
2022-08-31T22:33:57.226Z,19.32
2022-08-31T22:36:31.401Z,19.24
2022-08-31T22:39:03.865Z,19.19
2022-08-31T22:41:32.823Z,19.17
2022-08-31T22:44:00.254Z,19.10
2022-08-31T22:46:28.422Z,19.01
2022-08-31T22:48:55.668Z,19.04
2022-08-31T22:51:22.661Z,19.03
2022-08-31T22:53:51.730Z,18.97
2022-08-31T22:56:28.142Z,18.95
2022-08-31T22:58:57.563Z,18.94
2022-08-31T23:01:37.282Z,18.92
2022-08-31T23:04:06.873Z,18.92
2022-08-31T23:06:36.403Z,18.90
2022-08-31T23:09:05.412Z,18.92
2022-08-31T23:11:32.099Z,18.88
2022-08-31T23:13:58.850Z,18.83
2022-08-31T23:16:46.356Z,18.81
2022-08-31T23:19:19.815Z,18.79
2022-08-31T23:21:52.947Z,18.79
2022-08-31T23:24:28.658Z,18.78
2022-08-31T23:27:04.198Z,18.67
2022-08-31T23:29:51.349Z,18.62
2022-08-31T23:32:19.834Z,18.57
2022-08-31T23:34:49.729Z,18.52
2022-08-31T23:37:17.901Z,18.47
2022-08-31T23:39:46.250Z,18.50
2022-08-31T23:42:15.445Z,18.50
2022-08-31T23:44:43.870Z,18.53
2022-08-31T23:47:13.664Z,18.56
2022-08-31T23:49:42.380Z,18.54
2022-08-31T23:52:11.907Z,18.37
2022-08-31T23:54:39.417Z,18.39
2022-08-31T23:57:08.498Z,18.36
2022-08-31T23:59:53.202Z,18.39
